Time;durP1;ratioP1;P1;durP2;ratioP2;P2;SDS_P1;SDS_P2;PMS_P1;PMS_P2;Temp;Humidity;BMP_temperature;BMP_pressure;BME280_temperature;BME280_humidity;BME280_pressure;Samples;Min_cycle;Max_cycle;Signal;HPM_P1;HPM_P2
2021/03/16 00:02:30;;;;;;;12.70;3.80;;;;;;;7.02;58.37;97737.25;8330716;28;20209;-63
2021/03/16 00:06:32;;;;;;;11.50;3.80;;;;;;;7.06;57.70;97740.56;8331608;28;20227;-63
2021/03/16 00:10:34;;;;;;;10.17;3.50;;;;;;;6.93;57.99;97745.31;8330971;28;20247;-63
2021/03/16 00:14:36;;;;;;;11.50;3.60;;;;;;;6.94;58.40;97749.53;8330515;28;20240;-64
2021/03/16 00:18:39;;;;;;;12.33;4.07;;;;;;;6.84;58.33;97759.31;8330751;28;20236;-64
2021/03/16 00:22:41;;;;;;;8.90;3.57;;;;;;;6.72;58.90;97758.84;8331322;28;20212;-63
2021/03/16 00:26:49;;;;;;;10.13;3.27;;;;;;;6.83;58.33;97757.63;8332210;28;20228;-63
2021/03/16 00:30:51;;;;;;;14.07;3.37;;;;;;;6.71;58.47;97762.34;8337858;28;20243;-63
2021/03/16 00:34:54;;;;;;;11.50;4.00;;;;;;;6.75;58.83;97767.31;8338068;28;20227;-63
2021/03/16 00:38:56;;;;;;;11.70;3.50;;;;;;;6.80;58.24;97783.47;8338418;28;20204;-64
2021/03/16 00:42:58;;;;;;;11.50;3.70;;;;;;;6.89;58.42;97782.31;8338196;28;20204;-62
2021/03/16 00:46:59;;;;;;;11.83;3.63;;;;;;;6.68;58.34;97790.72;8337533;28;20523;-62
2021/03/16 00:51:03;;;;;;;12.33;3.40;;;;;;;6.94;57.76;97797.63;8338507;28;20630;-63
2021/03/16 00:55:06;;;;;;;12.60;3.63;;;;;;;6.89;57.61;97792.59;8337549;28;20204;-64
2021/03/16 00:59:08;;;;;;;9.77;3.60;;;;;;;6.88;57.65;97798.66;8337610;28;20262;-63
2021/03/16 01:03:10;;;;;;;11.33;3.20;;;;;;;6.69;58.20;97800.97;8336304;28;20212;-63
2021/03/16 01:07:13;;;;;;;12.63;3.03;;;;;;;6.87;57.48;97814.16;8336684;28;20573;-63
2021/03/16 01:11:15;;;;;;;9.73;3.03;;;;;;;6.75;57.39;97811.06;8335820;28;20247;-63
2021/03/16 01:15:18;;;;;;;9.90;2.90;;;;;;;6.79;57.04;97815.22;8337483;28;20232;-63
2021/03/16 01:19:20;;;;;;;10.10;2.70;;;;;;;6.71;56.77;97812.06;8336268;28;20215;-63
2021/03/16 01:23:22;;;;;;;10.40;2.77;;;;;;;6.62;56.93;97815.75;8336811;28;20575;-63
2021/03/16 01:27:37;;;;;;;8.47;2.77;;;;;;;6.63;56.51;97814.88;8337619;28;20303;-62
2021/03/16 01:31:39;;;;;;;7.13;2.17;;;;;;;6.57;56.67;97804.78;8335950;28;20303;-64
2021/03/16 01:35:42;;;;;;;11.03;2.90;;;;;;;6.45;57.03;97824.00;8335604;28;20274;-62
2021/03/16 01:39:46;;;;;;;9.17;2.83;;;;;;;6.54;56.66;97816.91;8334840;28;20213;-63
2021/03/16 01:43:47;;;;;;;11.37;2.70;;;;;;;6.36;56.72;97828.56;8336337;28;20497;-63
2021/03/16 01:47:51;;;;;;;11.47;2.93;;;;;;;6.41;57.03;97834.41;8335643;28;20204;-63
2021/03/16 01:51:52;;;;;;;8.13;2.37;;;;;;;6.36;57.75;97841.41;8334651;28;20339;-63
2021/03/16 01:55:57;;;;;;;10.27;2.67;;;;;;;6.57;57.05;97837.41;8335159;28;20208;-63
2021/03/16 01:59:59;;;;;;;10.00;3.07;;;;;;;6.47;57.25;97844.53;8334948;28;20229;-63
2021/03/16 02:04:01;;;;;;;12.97;3.30;;;;;;;6.49;57.42;97850.47;8335921;28;20559;-63
2021/03/16 02:08:09;;;;;;;8.67;3.03;;;;;;;6.54;57.25;97852.91;8335575;28;20211;-63
2021/03/16 02:12:13;;;;;;;10.63;3.10;;;;;;;6.36;58.23;97846.56;8334797;28;20236;-63
2021/03/16 02:16:17;;;;;;;6.93;2.73;;;;;;;6.44;57.95;97850.59;8334448;28;20211;-63
2021/03/16 02:20:31;;;;;;;10.23;3.10;;;;;;;6.28;58.66;97849.38;8333730;28;20213;-62
2021/03/16 02:24:53;;;;;;;10.37;3.03;;;;;;;6.28;58.26;97856.25;8335376;28;20553;-63
2021/03/16 02:29:17;;;;;;;8.17;2.90;;;;;;;6.40;58.59;97855.91;8334598;28;20214;-63
2021/03/16 02:33:22;;;;;;;8.23;2.80;;;;;;;6.52;58.19;97863.25;8328633;28;20566;-62
2021/03/16 02:37:26;;;;;;;14.10;3.30;;;;;;;6.59;58.12;97864.75;8334428;28;20235;-63
2021/03/16 02:41:31;;;;;;;12.13;3.70;;;;;;;6.51;58.54;97869.28;8333737;28;20208;-63
2021/03/16 02:45:35;;;;;;;11.87;3.50;;;;;;;6.68;57.86;97870.50;8333033;28;20208;-63
2021/03/16 02:49:41;;;;;;;17.50;3.87;;;;;;;6.46;58.29;97869.41;8333323;28;20204;-63
2021/03/16 02:53:44;;;;;;;8.87;2.87;;;;;;;6.62;58.16;97874.94;8333057;28;20203;-63
2021/03/16 02:57:47;;;;;;;10.57;3.40;;;;;;;6.60;58.33;97875.88;8332783;28;20211;-63
2021/03/16 03:01:51;;;;;;;11.97;3.80;;;;;;;6.29;58.76;97878.53;8332979;28;20644;-63
2021/03/16 03:05:54;;;;;;;10.93;3.60;;;;;;;6.34;58.68;97880.06;8332453;28;20236;-63
2021/03/16 03:09:56;;;;;;;10.10;3.13;;;;;;;6.48;58.66;97877.09;8331996;28;20223;-63
2021/03/16 03:13:58;;;;;;;9.47;3.50;;;;;;;6.34;59.50;97892.06;8333555;28;20292;-63
2021/03/16 03:18:01;;;;;;;10.93;3.27;;;;;;;6.53;58.84;97897.53;8332977;28;20205;-63
2021/03/16 03:22:06;;;;;;;11.77;3.67;;;;;;;6.42;58.99;97908.97;8331989;28;20212;-63
2021/03/16 03:26:10;;;;;;;12.17;3.30;;;;;;;6.55;58.85;97906.03;8333206;28;20500;-63
2021/03/16 03:30:13;;;;;;;9.00;2.67;;;;;;;6.82;58.29;97920.69;8333612;28;20558;-63
2021/03/16 03:34:18;;;;;;;10.30;3.30;;;;;;;6.65;58.79;97915.19;8331888;28;20240;-63
2021/03/16 03:38:21;;;;;;;11.20;3.23;;;;;;;6.69;58.50;97916.78;8333071;28;20215;-63
2021/03/16 03:42:23;;;;;;;10.90;3.30;;;;;;;6.56;59.25;97923.19;8332724;28;20208;-63
2021/03/16 03:46:25;;;;;;;9.37;3.20;;;;;;;6.63;58.51;97925.53;8331711;28;20244;-63
2021/03/16 03:50:28;;;;;;;10.63;3.03;;;;;;;6.53;59.04;97936.13;8332333;28;20232;-63
2021/03/16 03:54:31;;;;;;;8.23;3.07;;;;;;;6.63;58.82;97937.56;8332591;28;20212;-62
2021/03/16 03:58:34;;;;;;;11.57;3.30;;;;;;;6.48;59.32;97938.84;8331374;28;20675;-62
2021/03/16 04:02:36;;;;;;;12.33;3.40;;;;;;;6.46;59.27;97940.63;8330980;28;20676;-63
2021/03/16 04:06:39;;;;;;;12.03;3.20;;;;;;;6.41;59.49;97953.59;8331298;28;20570;-63
2021/03/16 04:10:41;;;;;;;9.60;3.50;;;;;;;6.67;59.25;97952.03;8330923;28;20310;-63
2021/03/16 04:14:43;;;;;;;12.43;3.30;;;;;;;6.68;59.15;97948.53;8330982;28;20208;-63
2021/03/16 04:18:45;;;;;;;9.53;3.30;;;;;;;6.68;58.82;97955.44;8330421;28;20213;-63
2021/03/16 04:22:48;;;;;;;11.77;3.57;;;;;;;6.59;59.02;97959.13;8330800;28;20217;-63
2021/03/16 04:26:50;;;;;;;10.10;3.23;;;;;;;6.46;58.93;97956.06;8331035;28;20201;-63
2021/03/16 04:30:52;;;;;;;10.37;3.10;;;;;;;6.69;58.76;97967.44;8330789;28;20683;-63
2021/03/16 04:34:54;;;;;;;11.37;3.60;;;;;;;6.40;59.33;97962.22;8330402;28;20293;-65
2021/03/16 04:38:57;;;;;;;11.60;3.10;;;;;;;6.58;58.97;97970.28;8330984;28;20209;-63
2021/03/16 04:42:58;;;;;;;9.73;3.00;;;;;;;6.51;59.14;97968.78;8330374;28;20215;-63
2021/03/16 04:47:00;;;;;;;13.47;3.57;;;;;;;6.65;58.48;97975.22;8330630;28;20211;-64
2021/03/16 04:51:02;;;;;;;11.10;3.03;;;;;;;6.52;58.79;97975.63;8331476;28;20294;-63
2021/03/16 04:55:06;;;;;;;13.27;3.03;;;;;;;6.47;59.07;97980.88;8330429;28;20216;-63
2021/03/16 04:59:08;;;;;;;9.87;3.10;;;;;;;6.58;58.42;97986.56;8331791;28;20624;-63
2021/03/16 05:03:10;;;;;;;8.57;2.97;;;;;;;6.48;58.72;97992.88;8330458;28;20267;-63
2021/03/16 05:07:12;;;;;;;9.27;2.80;;;;;;;6.60;58.26;97989.09;8332158;28;20212;-63
2021/03/16 05:11:15;;;;;;;12.43;3.40;;;;;;;6.56;58.42;98000.38;8331574;28;20237;-63
2021/03/16 05:15:17;;;;;;;7.97;2.47;;;;;;;6.50;58.05;98001.38;8333296;28;20236;-63
2021/03/16 05:19:19;;;;;;;8.83;2.67;;;;;;;6.64;57.71;97999.28;8338474;28;20213;-63
2021/03/16 05:23:21;;;;;;;11.10;2.87;;;;;;;6.67;57.73;98000.91;8338252;28;20235;-63
2021/03/16 05:27:24;;;;;;;9.23;2.60;;;;;;;6.61;57.75;98009.66;8337089;28;20228;-63
2021/03/16 05:31:26;;;;;;;12.67;2.80;;;;;;;6.69;57.49;98014.59;8337786;28;20561;-63
2021/03/16 05:35:28;;;;;;;9.93;3.00;;;;;;;6.46;57.91;98016.06;8336497;28;20302;-63
2021/03/16 05:39:30;;;;;;;9.47;2.87;;;;;;;6.59;57.62;98028.59;8335129;28;20262;-63
2021/03/16 05:43:34;;;;;;;9.10;2.90;;;;;;;6.61;57.46;98032.81;8333824;28;20204;-63
2021/03/16 05:47:38;;;;;;;11.67;3.00;;;;;;;6.50;57.65;98032.25;8336911;28;20204;-64
2021/03/16 05:51:40;;;;;;;12.50;2.90;;;;;;;6.49;57.50;98040.00;8335204;28;20232;-63
2021/03/16 05:55:42;;;;;;;10.13;2.90;;;;;;;6.49;57.94;98045.16;8334638;28;20573;-63
2021/03/16 05:59:45;;;;;;;10.17;2.90;;;;;;;6.40;57.87;98056.56;8335082;28;20209;-63
2021/03/16 06:03:47;;;;;;;12.27;2.97;;;;;;;6.41;57.92;98058.22;8334372;28;20215;-63
2021/03/16 06:07:50;;;;;;;10.97;3.63;;;;;;;6.69;57.27;98066.06;8334391;28;20212;-63
2021/03/16 06:11:51;;;;;;;9.33;3.13;;;;;;;6.69;57.24;98063.47;8334552;28;20228;-63
2021/03/16 06:15:54;;;;;;;15.30;3.47;;;;;;;6.73;57.21;98072.81;8334024;28;20205;-64
2021/03/16 06:19:57;;;;;;;7.63;2.57;;;;;;;6.53;57.89;98080.19;8334378;28;20205;-63
2021/03/16 06:24:00;;;;;;;10.40;3.23;;;;;;;6.44;58.31;98083.88;8334190;28;20244;-62
2021/03/16 06:28:03;;;;;;;11.57;3.07;;;;;;;6.60;57.68;98082.56;8334880;28;20514;-63
2021/03/16 06:32:12;;;;;;;15.67;3.47;;;;;;;6.83;57.42;98094.00;8334936;28;20232;-63
2021/03/16 06:36:14;;;;;;;10.27;3.00;;;;;;;6.68;58.15;98109.84;8334609;28;20228;-63
2021/03/16 06:40:16;;;;;;;11.83;3.63;;;;;;;6.65;57.84;98110.78;8330478;28;20213;-64
2021/03/16 06:44:20;;;;;;;8.57;3.00;;;;;;;6.46;58.00;98116.38;8331373;28;20205;-64
2021/03/16 06:48:24;;;;;;;11.37;3.07;;;;;;;6.65;57.25;98116.75;8332638;28;20208;-63
2021/03/16 06:52:27;;;;;;;11.60;3.43;;;;;;;6.52;57.44;98128.25;8332279;28;20228;-63
2021/03/16 06:56:29;;;;;;;12.97;3.60;;;;;;;6.54;57.30;98133.38;8332429;28;20387;-63
2021/03/16 07:00:31;;;;;;;12.70;3.27;;;;;;;6.54;57.31;98138.50;8332032;28;20217;-63
2021/03/16 07:04:42;;;;;;;10.77;3.03;;;;;;;6.32;57.69;98143.34;8339698;28;20204;-63
2021/03/16 07:08:45;;;;;;;11.30;3.03;;;;;;;6.43;56.47;98161.94;8332515;28;20215;-63
2021/03/16 07:12:47;;;;;;;15.20;3.33;;;;;;;6.82;56.37;98165.22;8331844;28;20236;-63
2021/03/16 07:16:51;;;;;;;13.40;3.10;;;;;;;6.98;55.97;98168.22;8331355;28;20295;-63
2021/03/16 07:20:57;;;;;;;9.70;2.70;;;;;;;7.21;54.41;98170.19;8331960;28;20215;-63
2021/03/16 07:24:59;;;;;;;10.67;3.10;;;;;;;7.37;54.14;98169.78;8331180;28;20292;-63
2021/03/16 07:29:03;;;;;;;12.90;3.83;;;;;;;7.62;53.83;98183.66;8330493;28;20204;-63
2021/03/16 07:33:06;;;;;;;8.53;2.93;;;;;;;7.52;52.84;98186.53;8330530;28;20241;-63
2021/03/16 07:37:09;;;;;;;11.83;3.23;;;;;;;7.05;54.30;98199.84;8330021;28;20591;-63
2021/03/16 07:41:11;;;;;;;9.87;2.70;;;;;;;7.08;54.17;98204.88;8330671;28;20215;-63
2021/03/16 07:45:24;;;;;;;9.83;2.73;;;;;;;7.13;54.47;98204.78;8329938;28;20201;-63
2021/03/16 07:49:30;;;;;;;9.73;2.67;;;;;;;7.33;53.93;98199.94;8319403;28;20284;-63
2021/03/16 07:53:33;;;;;;;9.10;2.90;;;;;;;7.19;53.29;98212.34;8330816;28;20592;-63
2021/03/16 07:57:35;;;;;;;10.77;2.70;;;;;;;7.06;53.76;98211.81;8332525;28;20212;-63
2021/03/16 08:01:47;;;;;;;11.23;2.87;;;;;;;7.25;53.01;98212.16;8330457;28;20211;-63
2021/03/16 08:05:51;;;;;;;9.00;2.87;;;;;;;7.19;52.54;98218.31;8332093;28;20201;-63
2021/03/16 08:09:57;;;;;;;10.40;2.43;;;;;;;7.47;52.25;98209.03;8329764;28;20579;-64
2021/03/16 08:14:00;;;;;;;11.43;2.63;;;;;;;7.37;51.75;98226.47;8332468;28;20672;-62
2021/03/16 08:18:03;;;;;;;10.97;2.50;;;;;;;7.79;50.73;98223.56;8330790;28;20255;-62
2021/03/16 08:22:05;;;;;;;13.53;3.00;;;;;;;7.63;51.27;98226.59;8329086;28;20652;-62
2021/03/16 08:26:08;;;;;;;9.93;2.53;;;;;;;7.98;49.74;98245.34;8330807;28;20208;-63
2021/03/16 08:30:11;;;;;;;9.07;2.83;;;;;;;7.83;50.08;98230.31;8332594;28;20633;-63
2021/03/16 08:34:13;;;;;;;14.50;6.20;;;;;;;7.95;49.78;98244.59;8331774;28;20240;-63
2021/03/16 08:38:23;;;;;;;16.17;9.40;;;;;;;8.00;48.70;98251.31;8329408;28;20609;-64
2021/03/16 08:42:27;;;;;;;16.37;8.97;;;;;;;10.46;52.05;98254.19;8357134;28;20270;-63
2021/03/16 08:46:33;;;;;;;16.17;9.10;;;;;;;10.84;43.86;98250.06;8340485;28;20227;-65
2021/03/16 08:50:36;;;;;;;13.83;5.47;;;;;;;9.76;43.65;98256.75;8334483;28;20242;-64
2021/03/16 08:54:38;;;;;;;12.27;4.80;;;;;;;8.59;44.48;98252.97;8336126;28;20318;-63
2021/03/16 08:58:41;;;;;;;10.77;6.10;;;;;;;8.63;45.55;98258.06;8338152;28;20660;-64
2021/03/16 09:02:42;;;;;;;13.13;7.13;;;;;;;8.40;47.55;98263.00;8338057;28;20219;-64
2021/03/16 09:06:45;;;;;;;13.57;5.77;;;;;;;8.03;47.63;98263.25;8336937;28;20676;-63
2021/03/16 09:10:48;;;;;;;15.37;5.63;;;;;;;7.85;48.97;98271.53;8337527;28;20665;-64
2021/03/16 09:14:51;;;;;;;9.53;3.80;;;;;;;8.13;47.77;98269.84;8334362;28;20208;-64
2021/03/16 09:18:53;;;;;;;8.80;2.70;;;;;;;8.18;47.92;98265.38;8335802;28;20208;-65
2021/03/16 09:22:56;;;;;;;11.43;3.07;;;;;;;8.29;47.53;98272.81;8335759;28;20215;-63
2021/03/16 09:27:00;;;;;;;7.67;3.20;;;;;;;8.08;47.36;98276.88;8334923;28;20208;-63
2021/03/16 09:31:03;;;;;;;7.63;2.53;;;;;;;8.20;46.82;98278.25;8335365;28;20228;-63
2021/03/16 09:35:06;;;;;;;6.37;1.60;;;;;;;7.93;45.64;98279.91;8335986;28;20232;-64
2021/03/16 09:39:09;;;;;;;7.47;2.23;;;;;;;8.84;42.87;98283.19;8335318;28;20584;-64
2021/03/16 09:43:19;;;;;;;5.07;1.67;;;;;;;8.98;41.09;98277.56;8335712;28;20641;-64
2021/03/16 09:47:25;;;;;;;6.03;1.70;;;;;;;9.31;40.08;98291.09;8335203;28;20274;-64
2021/03/16 09:51:28;;;;;;;8.50;2.30;;;;;;;9.01;42.51;98292.97;8335951;28;20569;-65
2021/03/16 09:55:30;;;;;;;6.50;2.10;;;;;;;8.98;42.51;98291.31;8334225;28;20248;-64
2021/03/16 09:59:35;;;;;;;10.40;3.80;;;;;;;8.58;42.91;98284.84;8335182;28;20211;-64
2021/03/16 10:03:38;;;;;;;5.07;1.83;;;;;;;9.76;40.77;98284.38;8333936;28;20204;-65
2021/03/16 10:07:41;;;;;;;6.33;2.13;;;;;;;9.31;42.46;98280.78;8334541;28;20588;-64
2021/03/16 10:11:44;;;;;;;4.40;2.00;;;;;;;8.78;42.05;98280.81;8335088;28;20240;-62
2021/03/16 10:15:46;;;;;;;5.27;1.70;;;;;;;8.62;43.35;98290.75;8333135;28;20205;-63
2021/03/16 10:19:53;;;;;;;5.23;1.80;;;;;;;8.45;43.99;98293.84;8333880;28;20223;-62
2021/03/16 10:23:57;;;;;;;19.07;3.80;;;;;;;9.42;59.54;98293.31;8334701;28;20241;-60
2021/03/16 10:28:03;;;;;;;6.80;2.47;;;;;;;8.75;43.74;98293.81;8333252;28;20224;-61
2021/03/16 10:32:05;;;;;;;8.07;1.90;;;;;;;8.95;44.29;98293.19;8332966;28;20212;-62
2021/03/16 10:36:09;;;;;;;6.00;2.13;;;;;;;10.05;41.70;98290.22;8333182;28;20649;-61
2021/03/16 10:40:12;;;;;;;5.30;1.60;;;;;;;9.50;40.49;98288.72;8332449;28;20204;-62
2021/03/16 10:44:14;;;;;;;3.07;1.30;;;;;;;8.97;40.91;98294.81;8332331;28;20208;-62
2021/03/16 10:48:16;;;;;;;3.63;1.50;;;;;;;8.56;43.41;98291.78;8332761;28;20200;-61
2021/03/16 10:52:19;;;;;;;8.23;2.40;;;;;;;8.70;44.21;98295.66;8332121;28;20228;-61
2021/03/16 10:56:21;;;;;;;6.00;1.93;;;;;;;8.86;43.34;98299.47;8333118;28;20204;-61
2021/03/16 11:00:23;;;;;;;8.47;1.80;;;;;;;9.22;42.92;98298.31;8332069;28;20224;-63
2021/03/16 11:04:25;;;;;;;6.33;2.20;;;;;;;8.93;44.48;98298.38;8331808;28;20679;-63
2021/03/16 11:08:28;;;;;;;8.47;2.97;;;;;;;8.96;43.78;98295.69;8332085;28;20297;-62
2021/03/16 11:12:30;;;;;;;7.37;2.23;;;;;;;8.72;44.34;98299.06;8330892;28;20298;-63
2021/03/16 11:16:32;;;;;;;7.57;2.50;;;;;;;8.51;44.87;98309.19;8331381;28;20208;-63
2021/03/16 11:20:34;;;;;;;8.70;2.10;;;;;;;8.30;44.04;98308.06;8331428;28;20295;-63
2021/03/16 11:24:37;;;;;;;8.07;2.25;;;;;;;8.95;42.99;98312.09;8330558;28;20454;-61
2021/03/16 11:28:44;;;;;;;6.83;1.73;;;;;;;8.64;44.12;98319.09;8331426;28;20284;-63
2021/03/16 11:32:46;;;;;;;9.07;2.00;;;;;;;8.93;44.16;98313.00;8331403;28;20243;-62
2021/03/16 11:36:48;;;;;;;6.30;1.70;;;;;;;9.15;42.85;98313.19;8331557;28;20236;-62
2021/03/16 11:40:51;;;;;;;6.80;1.97;;;;;;;9.04;43.45;98312.69;8331202;28;20211;-62
2021/03/16 11:44:53;;;;;;;6.23;1.80;;;;;;;8.84;43.60;98309.00;8331130;28;20212;-62
2021/03/16 11:48:55;;;;;;;6.23;1.97;;;;;;;8.75;43.47;98314.47;8330202;28;20212;-62
2021/03/16 11:52:56;;;;;;;5.90;1.70;;;;;;;8.80;43.53;98325.50;8330578;28;20243;-61
2021/03/16 11:56:59;;;;;;;5.20;2.27;;;;;;;8.73;43.83;98318.84;8330247;28;20209;-62
2021/03/16 12:01:01;;;;;;;6.57;2.10;;;;;;;8.82;44.14;98305.63;8329570;28;20590;-62
2021/03/16 12:05:04;;;;;;;9.80;2.87;;;;;;;8.76;44.64;98313.59;8330832;28;20189;-62
2021/03/16 12:09:07;;;;;;;7.57;2.50;;;;;;;8.70;45.11;98312.03;8329924;28;20664;-61
2021/03/16 12:13:10;;;;;;;9.63;2.40;;;;;;;8.77;45.00;98320.41;8329925;28;20239;-62
2021/03/16 12:17:12;;;;;;;9.57;2.50;;;;;;;8.68;45.71;98320.69;8329315;28;20220;-62
2021/03/16 12:21:14;;;;;;;10.40;3.00;;;;;;;8.34;46.88;98319.09;8329482;28;20585;-62
2021/03/16 12:25:16;;;;;;;10.37;2.77;;;;;;;8.40;47.48;98319.78;8329200;28;20262;-61
2021/03/16 12:29:20;;;;;;;9.97;2.70;;;;;;;8.58;47.62;98313.22;8330222;28;20231;-63
2021/03/16 12:33:22;;;;;;;9.27;2.80;;;;;;;8.47;47.04;98310.13;8333797;28;20232;-63
2021/03/16 12:37:24;;;;;;;7.77;2.10;;;;;;;8.64;45.99;98317.38;8329914;28;20232;-64
2021/03/16 12:41:25;;;;;;;9.43;2.73;;;;;;;8.59;46.16;98314.94;8344169;28;20212;-63
2021/03/16 12:45:28;;;;;;;8.93;2.67;;;;;;;8.84;45.10;98310.75;8362290;28;20207;-63
2021/03/16 12:49:31;;;;;;;11.23;2.30;;;;;;;8.75;44.27;98310.13;8362119;28;20273;-66
2021/03/16 12:53:33;;;;;;;8.30;2.70;;;;;;;8.57;44.57;98303.81;8330440;28;20228;-64
2021/03/16 12:57:35;;;;;;;9.50;2.27;;;;;;;8.87;44.55;98305.47;8330463;28;20205;-64
2021/03/16 13:01:39;;;;;;;7.93;2.50;;;;;;;9.10;44.50;98309.88;8329241;28;20250;-64
2021/03/16 13:05:42;;;;;;;9.10;2.73;;;;;;;9.03;43.76;98309.25;8330110;28;20193;-64
2021/03/16 13:09:46;;;;;;;8.53;2.27;;;;;;;9.13;44.29;98309.81;8329582;28;20267;-64
2021/03/16 13:13:48;;;;;;;9.33;3.40;;;;;;;8.96;44.06;98307.75;8357238;28;20224;-65
2021/03/16 13:17:50;;;;;;;11.07;2.67;;;;;;;9.23;44.01;98315.50;8362085;28;20212;-64
2021/03/16 13:21:52;;;;;;;8.13;2.30;;;;;;;9.22;43.31;98308.66;8353912;28;20204;-64
2021/03/16 13:25:54;;;;;;;6.37;2.27;;;;;;;8.96;43.13;98303.44;8351973;28;20660;-65
2021/03/16 13:29:56;;;;;;;7.47;2.33;;;;;;;8.88;43.59;98310.59;8362289;28;20223;-64
2021/03/16 13:33:59;;;;;;;7.23;2.10;;;;;;;8.76;43.66;98305.84;8355975;28;20228;-65
2021/03/16 13:38:01;;;;;;;7.57;1.90;;;;;;;8.78;44.26;98310.03;8334167;28;20208;-64
2021/03/16 13:42:03;;;;;;;8.93;2.60;;;;;;;8.97;43.54;98306.88;8334415;28;20209;-64
2021/03/16 13:46:05;;;;;;;8.43;2.00;;;;;;;8.87;43.47;98308.94;8333774;28;20220;-64
2021/03/16 13:50:10;;;;;;;6.10;1.67;;;;;;;8.96;43.48;98316.34;8334380;28;20236;-64
2021/03/16 13:54:12;;;;;;;8.40;2.07;;;;;;;9.00;43.25;98314.50;8333994;28;20723;-64
2021/03/16 13:58:14;;;;;;;7.37;2.07;;;;;;;9.04;43.67;98310.94;8333187;28;20209;-63
2021/03/16 14:02:16;;;;;;;8.90;2.27;;;;;;;8.92;42.86;98309.59;8333558;28;20533;-63
2021/03/16 14:06:20;;;;;;;5.33;1.73;;;;;;;9.14;42.92;98308.91;8333187;28;20207;-63
2021/03/16 14:10:22;;;;;;;9.10;2.23;;;;;;;9.12;43.06;98310.69;8333812;28;20730;-64
2021/03/16 14:14:24;;;;;;;9.37;2.57;;;;;;;8.99;42.64;98305.94;8333262;28;20231;-64
2021/03/16 14:18:26;;;;;;;8.07;2.33;;;;;;;8.94;43.18;98305.22;8334271;28;20212;-63
2021/03/16 14:22:29;;;;;;;7.23;2.40;;;;;;;9.07;43.14;98308.25;8334315;28;20684;-63
2021/03/16 14:26:31;;;;;;;7.33;2.63;;;;;;;8.98;42.73;98308.56;8334479;28;20207;-63
2021/03/16 14:30:33;;;;;;;7.97;2.40;;;;;;;9.18;41.93;98306.16;8333935;28;20518;-63
2021/03/16 14:34:35;;;;;;;11.17;2.57;;;;;;;9.26;41.97;98297.31;8331972;28;20236;-62
2021/03/16 14:38:38;;;;;;;9.90;2.53;;;;;;;9.30;42.51;98309.25;8333772;28;20247;-62
2021/03/16 14:42:41;;;;;;;7.83;2.27;;;;;;;9.47;42.11;98286.25;8332865;28;20216;-63
2021/03/16 14:46:42;;;;;;;8.53;2.13;;;;;;;9.67;41.73;98292.44;8335399;28;20200;-63
2021/03/16 14:50:45;;;;;;;5.50;2.00;;;;;;;10.04;40.46;98288.53;8334137;28;20212;-63
2021/03/16 14:54:47;;;;;;;7.33;2.40;;;;;;;10.91;39.42;98279.16;8332875;28;20327;-63
2021/03/16 14:58:49;;;;;;;8.13;2.63;;;;;;;10.48;40.00;98276.53;8333785;28;20208;-62
2021/03/16 15:02:51;;;;;;;11.93;3.70;;;;;;;10.33;39.81;98277.94;8334323;28;20212;-68
2021/03/16 15:06:56;;;;;;;7.77;2.70;;;;;;;10.52;39.38;98274.66;8332393;28;20208;-63
2021/03/16 15:10:59;;;;;;;7.10;2.53;;;;;;;10.83;39.70;98271.69;8333112;28;20228;-63
2021/03/16 15:15:01;;;;;;;7.33;2.30;;;;;;;10.70;38.42;98267.91;8333418;28;20224;-64
2021/03/16 15:19:04;;;;;;;11.87;3.13;;;;;;;10.27;40.70;98264.38;8332095;28;20219;-63
2021/03/16 15:23:06;;;;;;;7.40;2.47;;;;;;;10.21;39.80;98264.63;8360757;28;20678;-63
2021/03/16 15:27:08;;;;;;;7.67;2.80;;;;;;;10.61;40.09;98253.59;8365499;28;20203;-62
2021/03/16 15:31:10;;;;;;;6.97;3.00;;;;;;;10.82;41.49;98257.06;8366218;28;20204;-62
2021/03/16 15:35:14;;;;;;;6.70;2.93;;;;;;;10.81;41.25;98251.94;8365199;28;20231;-62
2021/03/16 15:39:15;;;;;;;9.17;3.00;;;;;;;10.61;40.65;98242.38;8362741;28;20204;-62
2021/03/16 15:43:18;;;;;;;8.87;2.77;;;;;;;10.74;40.14;98233.22;8331329;28;20212;-62
2021/03/16 15:47:20;;;;;;;9.70;2.90;;;;;;;10.36;40.96;98240.78;8331739;28;20600;-61
2021/03/16 15:51:23;;;;;;;8.27;2.90;;;;;;;10.46;40.54;98234.31;8331682;28;20201;-62
2021/03/16 15:55:25;;;;;;;8.53;3.00;;;;;;;10.44;41.49;98228.34;8331597;28;20200;-62
2021/03/16 15:59:27;;;;;;;11.17;3.17;;;;;;;10.41;41.75;98227.63;8331151;28;20204;-62
2021/03/16 16:03:29;;;;;;;13.20;3.23;;;;;;;10.39;42.54;98222.50;8332397;28;20213;-63
2021/03/16 16:07:31;;;;;;;10.70;3.63;;;;;;;10.37;42.18;98226.91;8331325;28;20210;-62
2021/03/16 16:11:33;;;;;;;11.20;4.43;;;;;;;10.23;42.27;98239.53;8336223;28;20227;-62
2021/03/16 16:15:36;;;;;;;7.73;2.57;;;;;;;10.07;42.92;98232.34;8336649;28;20208;-62
2021/03/16 16:19:37;;;;;;;6.63;2.77;;;;;;;9.84;43.01;98222.84;8329693;28;20222;-63
2021/03/16 16:23:39;;;;;;;8.57;3.53;;;;;;;9.83;43.28;98234.09;8330972;28;20209;-63
2021/03/16 16:27:41;;;;;;;7.63;2.70;;;;;;;9.81;42.81;98229.91;8332042;28;20633;-63
2021/03/16 16:31:44;;;;;;;7.63;3.40;;;;;;;9.78;43.79;98223.06;8334495;28;20231;-63
2021/03/16 16:35:47;;;;;;;15.07;3.10;;;;;;;12.25;53.45;98237.88;8339827;28;20231;-61
2021/03/16 16:39:49;;;;;;;13.33;3.37;;;;;;;12.74;48.67;98231.25;8336334;28;20208;-61
2021/03/16 16:43:51;;;;;;;14.83;3.03;;;;;;;13.06;48.44;98225.31;8348585;28;20223;-61
2021/03/16 16:47:54;;;;;;;8.37;2.97;;;;;;;12.95;43.18;98239.78;8357683;28;20207;-64
2021/03/16 16:51:56;;;;;;;7.27;3.03;;;;;;;11.16;40.73;98232.34;8333410;28;20252;-63
2021/03/16 16:55:58;;;;;;;9.97;3.63;;;;;;;10.82;42.53;98238.09;8345466;28;20581;-62
2021/03/16 17:00:05;;;;;;;10.80;3.13;;;;;;;10.56;42.71;98243.38;8336703;28;20208;-62
2021/03/16 17:04:08;;;;;;;10.20;3.13;;;;;;;10.29;44.08;98237.53;8312897;28;20768;-62
2021/03/16 17:08:11;;;;;;;11.10;3.20;;;;;;;10.26;44.42;98242.84;8341356;28;20208;-63
2021/03/16 17:12:13;;;;;;;9.27;3.47;;;;;;;10.00;45.09;98251.59;8366993;28;20327;-61
2021/03/16 17:16:15;;;;;;;7.07;3.17;;;;;;;9.87;44.95;98256.38;8368744;28;20303;-61
2021/03/16 17:20:19;;;;;;;8.70;3.80;;;;;;;9.31;48.13;98298.84;8369433;28;20204;-63
2021/03/16 17:24:21;;;;;;;4.30;1.97;;;;;;;8.03;54.43;98310.56;8369843;28;20212;-63
2021/03/16 17:28:23;;;;;;;2.87;1.60;;;;;;;7.50;55.24;98312.88;8369314;28;20211;-63
2021/03/16 17:32:25;;;;;;;3.77;2.00;;;;;;;7.56;55.76;98301.56;8368838;28;20242;-62
2021/03/16 17:36:28;;;;;;;2.80;1.90;;;;;;;7.26;57.07;98303.19;8369379;28;20247;-62
2021/03/16 17:40:44;;;;;;;3.17;1.70;;;;;;;7.77;56.10;98293.22;8370239;28;20250;-62
2021/03/16 17:44:46;;;;;;;2.03;1.60;;;;;;;7.94;55.58;98292.75;8369529;28;20265;-63
2021/03/16 17:48:48;;;;;;;4.97;1.53;;;;;;;7.91;55.66;98295.41;8368699;28;20218;-63
2021/03/16 17:52:51;;;;;;;3.00;2.00;;;;;;;7.91;55.55;98294.56;8368063;28;20263;-63
2021/03/16 17:56:52;;;;;;;4.37;3.60;;;;;;;7.92;55.59;98299.69;8367796;28;20204;-63
2021/03/16 18:00:54;;;;;;;4.03;2.73;;;;;;;7.92;55.93;98291.94;8368361;28;20232;-63
2021/03/16 18:04:57;;;;;;;3.50;2.57;;;;;;;7.86;56.90;98302.41;8368938;28;20215;-62
2021/03/16 18:09:00;;;;;;;15.70;11.93;;;;;;;7.76;57.46;98293.25;8368778;28;20230;-62
2021/03/16 18:13:01;;;;;;;7.07;5.13;;;;;;;7.77;56.92;98282.91;8368244;28;20234;-62
2021/03/16 18:17:03;;;;;;;5.73;4.97;;;;;;;7.85;56.65;98274.97;8368323;28;20200;-61
2021/03/16 18:21:06;;;;;;;6.50;4.80;;;;;;;7.86;56.72;98275.78;8366870;28;20207;-62
2021/03/16 18:25:11;;;;;;;5.33;3.50;;;;;;;7.85;56.48;98280.13;8366688;28;20334;-62
2021/03/16 18:29:12;;;;;;;3.83;2.90;;;;;;;7.77;57.27;98284.66;8366998;28;20204;-62
2021/03/16 18:33:14;;;;;;;6.10;3.97;;;;;;;7.74;57.03;98282.16;8366455;28;20227;-63
2021/03/16 18:37:17;;;;;;;10.17;7.83;;;;;;;7.66;57.08;98276.38;8365893;28;20223;-62
2021/03/16 18:41:32;;;;;;;24.87;20.57;;;;;;;7.64;57.51;98272.09;8368504;28;20484;-62
2021/03/16 18:45:34;;;;;;;19.77;15.13;;;;;;;7.59;57.85;98281.66;8367395;28;20223;-62
2021/03/16 18:49:36;;;;;;;14.13;10.90;;;;;;;7.55;58.24;98274.06;8366894;28;20637;-62
2021/03/16 18:53:38;;;;;;;12.93;9.83;;;;;;;7.56;57.60;98268.88;8367886;28;20228;-62
2021/03/16 18:57:41;;;;;;;9.43;7.37;;;;;;;7.56;57.88;98262.88;8367469;28;20199;-62
2021/03/16 19:01:43;;;;;;;7.10;4.80;;;;;;;7.45;58.10;98260.59;8366855;28;20238;-62
2021/03/16 19:05:45;;;;;;;7.07;4.77;;;;;;;7.30;57.89;98272.16;8365652;28;20600;-62
2021/03/16 19:09:46;;;;;;;7.77;5.57;;;;;;;7.34;57.88;98267.75;8365680;28;20208;-63